TimeEST,TemperatureF,Dew PointF,Humidity,Sea Level PressureIn,VisibilityMPH,Wind Direction,Wind SpeedMPH,Gust SpeedMPH,PrecipitationIn,Events,Conditions,WindDirDegrees,DateUTC
12:53 AM,41.0,19.9,43,30.07,10.0,NW,6.9,-,N/A,,Scattered Clouds,310,2014-02-16 05:53:00
1:53 AM,39.9,19.9,45,30.07,10.0,WNW,5.8,-,N/A,,Clear,290,2014-02-16 06:53:00
2:53 AM,39.0,19.9,46,30.08,10.0,WNW,6.9,-,N/A,,Partly Cloudy,300,2014-02-16 07:53:00
3:53 AM,39.9,21.0,47,30.09,10.0,WNW,9.2,-,N/A,,Clear,300,2014-02-16 08:53:00
4:53 AM,39.9,21.0,47,30.09,10.0,WNW,5.8,-,N/A,,Clear,290,2014-02-16 09:53:00
5:53 AM,39.9,21.9,49,30.11,10.0,NW,4.6,-,N/A,,Clear,320,2014-02-16 10:53:00
6:53 AM,39.9,21.9,49,30.12,10.0,Calm,Calm,-,N/A,,Overcast,0,2014-02-16 11:53:00
7:53 AM,42.1,21.0,43,30.14,10.0,Calm,Calm,-,N/A,,Overcast,0,2014-02-16 12:53:00
8:53 AM,45.0,23.0,42,30.15,10.0,SW,3.5,-,N/A,,Clear,230,2014-02-16 13:53:00
9:53 AM,50.0,24.1,36,30.14,10.0,West,6.9,-,N/A,,Clear,280,2014-02-16 14:53:00
10:53 AM,53.1,26.1,35,30.14,10.0,WSW,9.2,-,N/A,,Clear,250,2014-02-16 15:53:00
11:53 AM,55.9,27.0,33,30.13,10.0,Variable,5.8,-,N/A,,Clear,0,2014-02-16 16:53:00
12:53 PM,60.1,28.0,30,30.11,10.0,North,-9999.0,-,N/A,,Clear,0,2014-02-16 17:53:00
1:53 PM,61.0,28.0,29,30.08,10.0,WSW,10.4,-,N/A,,Clear,240,2014-02-16 18:53:00
2:53 PM,63.0,30.0,29,30.06,10.0,West,6.9,17.3,N/A,,Clear,260,2014-02-16 19:53:00
3:53 PM,64.0,28.0,26,30.06,10.0,WSW,10.4,16.1,N/A,,Clear,240,2014-02-16 20:53:00
4:53 PM,63.0,28.0,27,30.07,10.0,Variable,5.8,-,N/A,,Clear,0,2014-02-16 21:53:00
5:53 PM,61.0,27.0,27,30.08,10.0,West,3.5,-,N/A,,Clear,280,2014-02-16 22:53:00
6:53 PM,59.0,28.9,32,30.10,10.0,Calm,Calm,-,N/A,,Clear,0,2014-02-16 23:53:00
7:53 PM,55.9,30.0,37,30.12,10.0,Calm,Calm,-,N/A,,Clear,0,2014-02-17 00:53:00
8:53 PM,55.0,30.9,40,30.12,10.0,Calm,Calm,-,N/A,,Clear,0,2014-02-17 01:53:00
9:53 PM,55.0,30.9,40,30.14,10.0,West,3.5,-,N/A,,Clear,270,2014-02-17 02:53:00
10:53 PM,52.0,30.9,45,30.14,10.0,Calm,Calm,-,N/A,,Clear,0,2014-02-17 03:53:00
11:53 PM,52.0,30.9,45,30.13,10.0,Calm,Calm,-,N/A,,Clear,0,2014-02-17 04:53:00